Terminal Aerodrome Forecast
Issued by NWS Topeka, KS

Home | Current Version | Previous Version | Graphics & Text | Print | Product List | Glossary On
Versions: 1 2 3 4 5 6 7 8 9 10 11 12 13 14
000
FTUS43 KTOP 120520
TAFTOP
TAF
KTOP 120520Z 1206/1306 33015KT P6SM FEW040
     FM120900 32010KT P6SM FEW040
     FM122000 25007KT P6SM SCT035=

USA.gov is the U.S. government's official web portal to all federal, state and local government web resources and services.